Time;durP1;ratioP1;P1;durP2;ratioP2;P2;SDS_P1;SDS_P2;PMS_P1;PMS_P2;Temp;Humidity;BMP_temperature;BMP_pressure;BME280_temperature;BME280_humidity;BME280_pressure;Samples;Min_cycle;Max_cycle;Signal;HPM_P1;HPM_P2
2021/07/03 00:02:14;;;;;;;10.00;9.10;;;;;;;16.17;85.89;98793.47;4842979;29;103949;-77
2021/07/03 00:04:42;;;;;;;9.20;8.32;;;;;;;16.16;85.81;98789.13;4828261;29;104838;-77
2021/07/03 00:07:10;;;;;;;10.35;8.70;;;;;;;16.16;85.76;98789.13;4824115;29;102715;-77
2021/07/03 00:09:39;;;;;;;10.80;9.70;;;;;;;16.22;85.49;98793.91;4828857;29;103093;-77
2021/07/03 00:12:10;;;;;;;9.85;8.75;;;;;;;16.28;85.39;98787.97;4846942;29;104641;-77
2021/07/03 00:14:38;;;;;;;13.52;11.25;;;;;;;16.24;85.43;98783.91;4828583;29;103704;-76
2021/07/03 00:17:06;;;;;;;10.77;9.65;;;;;;;16.11;86.36;98797.53;4835785;29;102862;-76
2021/07/03 00:19:34;;;;;;;9.88;8.88;;;;;;;16.18;85.76;98796.00;4844628;29;102909;-77
2021/07/03 00:22:02;;;;;;;10.10;9.05;;;;;;;16.24;85.01;98797.25;4838469;29;103272;-77
2021/07/03 00:24:30;;;;;;;10.25;9.25;;;;;;;16.28;85.08;98803.13;4838913;29;104990;-77
2021/07/03 00:26:58;;;;;;;10.48;9.38;;;;;;;16.16;85.76;98800.63;4838544;29;102750;-78
2021/07/03 00:29:27;;;;;;;10.07;9.07;;;;;;;16.11;86.16;98797.53;4842441;29;103142;-77
2021/07/03 00:31:55;;;;;;;11.00;9.90;;;;;;;16.09;85.84;98804.00;4840064;29;103969;-77
2021/07/03 00:34:24;;;;;;;11.02;9.93;;;;;;;16.05;86.03;98797.28;4831263;29;103308;-78
2021/07/03 00:36:52;;;;;;;11.37;10.17;;;;;;;15.88;86.88;98796.19;4829425;29;102754;-78
2021/07/03 00:39:20;;;;;;;10.98;9.73;;;;;;;16.00;85.92;98796.88;4838301;29;102931;-76
2021/07/03 00:41:48;;;;;;;9.43;8.57;;;;;;;15.98;86.43;98801.50;4812705;29;104120;-77
2021/07/03 00:44:25;;;;;;;9.88;8.98;;;;;;;16.02;86.10;98800.25;4840426;29;103171;-77
2021/07/03 00:46:55;;;;;;;10.88;9.77;;;;;;;16.02;85.67;98800.25;4846084;29;102646;-76
2021/07/03 00:49:24;;;;;;;11.77;9.53;;;;;;;15.98;86.73;98797.00;4829400;29;102904;-77
2021/07/03 00:51:53;;;;;;;10.35;9.45;;;;;;;16.04;86.48;98790.28;4843871;29;109453;-77
2021/07/03 00:54:22;;;;;;;10.30;9.27;;;;;;;16.05;86.41;98797.28;4831341;29;106051;-77
2021/07/03 00:57:01;;;;;;;10.27;9.20;;;;;;;16.02;86.98;98792.25;4845205;29;102986;-77
2021/07/03 00:59:33;;;;;;;9.80;8.90;;;;;;;15.98;87.28;98790.84;4830378;29;103239;-77
2021/07/03 01:02:08;;;;;;;10.32;9.32;;;;;;;16.01;87.17;98793.22;4815528;29;105423;-77
2021/07/03 01:04:37;;;;;;;8.63;7.75;;;;;;;16.01;86.71;98796.72;4817939;29;103694;-77
2021/07/03 01:07:07;;;;;;;12.13;10.90;;;;;;;15.89;87.77;98787.19;4837261;29;102651;-77
2021/07/03 01:09:36;;;;;;;12.98;10.63;;;;;;;15.83;88.09;98792.28;4830710;29;103011;-77
2021/07/03 01:12:06;;;;;;;10.53;9.30;;;;;;;15.74;89.02;98787.78;4816439;29;106737;-76
2021/07/03 01:14:41;;;;;;;10.68;9.77;;;;;;;15.73;88.85;98792.25;4836038;29;104817;-78
2021/07/03 01:17:10;;;;;;;10.98;9.95;;;;;;;15.59;89.94;98790.03;4835081;29;103004;-76
2021/07/03 01:19:41;;;;;;;11.30;10.30;;;;;;;15.68;89.17;98788.34;4826260;29;103100;-77
2021/07/03 01:22:13;;;;;;;14.77;11.33;;;;;;;15.64;89.05;98785.09;4818668;29;103911;-77
2021/07/03 01:24:43;;;;;;;10.30;9.27;;;;;;;15.75;87.96;98784.97;4812674;29;103814;-77
2021/07/03 01:27:14;;;;;;;10.97;9.77;;;;;;;15.84;87.64;98800.09;4819577;29;103117;-77
2021/07/03 01:29:45;;;;;;;13.13;11.73;;;;;;;15.80;88.19;98792.56;4821337;29;102904;-77
2021/07/03 01:32:14;;;;;;;11.93;10.00;;;;;;;15.65;89.09;98790.31;4840591;29;103398;-76
2021/07/03 01:34:44;;;;;;;12.97;11.67;;;;;;;15.47;90.45;98783.13;4840715;29;103380;-77
2021/07/03 01:37:26;;;;;;;12.20;10.90;;;;;;;15.41;90.24;98791.69;4823782;29;102641;-76
2021/07/03 01:39:58;;;;;;;12.13;10.93;;;;;;;15.42;90.53;98788.88;4823932;29;102871;-77
2021/07/03 01:42:27;;;;;;;10.30;9.27;;;;;;;15.48;90.09;98787.50;4831152;29;103926;-77
2021/07/03 01:44:58;;;;;;;10.97;9.87;;;;;;;15.50;89.68;98785.53;4812818;29;103827;-76
2021/07/03 01:47:27;;;;;;;12.57;11.30;;;;;;;15.50;89.68;98786.38;4842292;29;103276;-77
2021/07/03 01:49:56;;;;;;;11.17;10.07;;;;;;;15.52;89.39;98789.72;4811630;29;103159;-78
2021/07/03 01:52:24;;;;;;;9.80;8.73;;;;;;;15.59;88.91;98790.03;4846700;29;104196;-77
2021/07/03 01:54:59;;;;;;;11.50;10.00;;;;;;;15.64;88.24;98785.97;4827730;29;106255;-76
2021/07/03 01:57:27;;;;;;;10.13;9.10;;;;;;;15.66;87.58;98785.84;4826664;29;103657;-76
2021/07/03 02:00:22;;;;;;;9.10;8.30;;;;;;;15.61;88.21;98794.22;4816711;29;103287;-76
2021/07/03 02:02:58;;;;;;;9.90;8.80;;;;;;;15.58;88.29;98793.66;4813591;29;103356;-77
2021/07/03 02:05:38;;;;;;;11.07;10.00;;;;;;;15.57;87.87;98784.00;4838872;29;103752;-78
2021/07/03 02:08:08;;;;;;;9.93;9.03;;;;;;;15.57;88.22;98787.50;4809172;29;103002;-77
2021/07/03 02:10:39;;;;;;;14.90;11.93;;;;;;;15.49;89.88;98789.19;4818841;29;102855;-77
2021/07/03 02:13:08;;;;;;;10.97;9.97;;;;;;;15.54;89.43;98785.13;4821909;29;103548;-76
2021/07/03 02:15:39;;;;;;;10.53;9.40;;;;;;;15.59;89.05;98785.53;4812333;29;103756;-77
2021/07/03 02:18:14;;;;;;;10.37;9.37;;;;;;;15.61;88.63;98783.56;4816784;29;103102;-76
2021/07/03 02:20:44;;;;;;;10.07;9.17;;;;;;;15.64;87.81;98793.94;4840597;29;103019;-77
2021/07/03 02:23:15;;;;;;;10.53;9.43;;;;;;;15.62;88.60;98785.25;4827162;29;103440;-76
2021/07/03 02:25:49;;;;;;;13.07;11.70;;;;;;;15.49;89.22;98784.72;4839249;29;103770;-77
2021/07/03 02:28:22;;;;;;;13.03;11.73;;;;;;;15.42;89.40;98780.88;4824155;29;103460;-77
2021/07/03 02:30:58;;;;;;;10.17;9.17;;;;;;;15.40;89.65;98779.34;4823325;29;103295;-77
2021/07/03 02:33:28;;;;;;;11.50;10.30;;;;;;;15.42;89.70;98783.53;4828597;29;104772;-76
2021/07/03 02:36:00;;;;;;;11.13;9.33;;;;;;;15.42;89.42;98788.00;4841326;29;103689;-76
2021/07/03 02:38:31;;;;;;;12.07;10.50;;;;;;;15.34;89.68;98785.22;4828993;29;103251;-77
2021/07/03 02:41:01;;;;;;;8.93;8.03;;;;;;;15.36;88.90;98784.09;4839036;28;103198;-77
2021/07/03 02:43:30;;;;;;;9.67;8.30;;;;;;;15.43;88.63;98785.22;4832664;29;103440;-76
2021/07/03 02:46:06;;;;;;;8.50;7.67;;;;;;;15.37;88.97;98769.81;4813731;29;103828;-77
2021/07/03 02:48:34;;;;;;;12.50;11.20;;;;;;;15.23;89.80;98766.69;4847999;29;102664;-77
2021/07/03 02:51:03;;;;;;;10.00;9.10;;;;;;;15.20;90.24;98773.16;4831242;29;108283;-77
2021/07/03 02:53:32;;;;;;;9.87;8.87;;;;;;;15.21;89.59;98774.84;4805784;29;104477;-77
2021/07/03 02:56:01;;;;;;;14.40;12.90;;;;;;;15.10;90.30;98782.94;4836346;29;103738;-77
2021/07/03 02:58:33;;;;;;;13.83;12.33;;;;;;;15.04;91.00;98781.66;4825515;29;103132;-76
2021/07/03 03:01:01;;;;;;;10.73;9.63;;;;;;;15.05;91.31;98786.00;4820508;29;103072;-77
2021/07/03 03:03:32;;;;;;;12.00;10.27;;;;;;;14.95;92.14;98784.31;4830982;29;103787;-77
2021/07/03 03:06:00;;;;;;;13.77;12.37;;;;;;;14.99;91.66;98797.19;4807803;29;104379;-77
2021/07/03 03:08:28;;;;;;;9.93;8.93;;;;;;;15.12;91.11;98796.09;4837930;29;102967;-76
2021/07/03 03:10:58;;;;;;;12.13;9.90;;;;;;;15.18;90.42;98795.56;4836790;29;103230;-77
2021/07/03 03:13:29;;;;;;;11.33;9.33;;;;;;;15.23;89.67;98799.50;4828954;29;103871;-77
2021/07/03 03:15:57;;;;;;;11.20;9.83;;;;;;;15.19;89.71;98800.72;4830210;29;104885;-77
2021/07/03 03:18:25;;;;;;;14.13;12.20;;;;;;;15.16;89.83;98789.53;4829257;29;103085;-77
2021/07/03 03:20:53;;;;;;;11.20;10.00;;;;;;;15.10;90.49;98782.94;4846634;29;103052;-77
2021/07/03 03:23:21;;;;;;;10.67;9.57;;;;;;;15.13;90.54;98787.97;4836730;29;103189;-77
2021/07/03 03:25:49;;;;;;;13.90;12.30;;;;;;;15.04;90.41;98778.16;4827039;29;105280;-77
2021/07/03 03:28:20;;;;;;;13.93;11.63;;;;;;;14.67;92.87;98785.03;4824239;29;103430;-77
2021/07/03 03:30:52;;;;;;;13.73;12.23;;;;;;;14.54;94.13;98779.13;4808630;29;104392;-77
2021/07/03 03:33:26;;;;;;;12.27;10.70;;;;;;;14.64;93.46;98780.84;4834473;29;103740;-77
2021/07/03 03:36:13;;;;;;;11.27;9.43;;;;;;;14.73;92.85;98772.06;4838393;29;103843;-77
2021/07/03 03:38:42;;;;;;;12.17;10.97;;;;;;;14.74;92.29;98770.22;4827506;29;103328;-74
2021/07/03 03:41:11;;;;;;;10.90;9.90;;;;;;;14.68;92.97;98770.78;4819129;29;104832;-75
2021/07/03 03:43:40;;;;;;;11.30;10.17;;;;;;;14.63;93.50;98772.97;4824159;29;103427;-77
2021/07/03 03:46:11;;;;;;;10.70;9.60;;;;;;;14.80;91.85;98769.69;4836750;29;103834;-76
2021/07/03 03:48:42;;;;;;;11.70;10.50;;;;;;;14.84;91.18;98787.06;4819792;29;103470;-77
2021/07/03 03:51:12;;;;;;;9.30;8.40;;;;;;;14.82;91.51;98779.22;4830954;29;103023;-77
2021/07/03 03:53:42;;;;;;;11.93;10.40;;;;;;;14.88;91.05;98773.34;4831512;29;104018;-76
2021/07/03 03:56:10;;;;;;;10.63;9.60;;;;;;;14.89;91.77;98771.53;4830533;29;103841;-76
2021/07/03 03:58:43;;;;;;;10.33;8.90;;;;;;;14.76;92.45;98768.28;4828910;29;102914;-76
2021/07/03 04:01:17;;;;;;;11.20;9.80;;;;;;;14.67;93.47;98761.13;4825804;29;103825;-77
2021/07/03 04:03:45;;;;;;;12.63;10.40;;;;;;;14.54;94.54;98769.31;4836203;29;104769;-77
2021/07/03 04:06:13;;;;;;;10.00;9.00;;;;;;;14.70;93.68;98768.81;4831980;29;103206;-76
2021/07/03 04:08:43;;;;;;;9.50;8.60;;;;;;;14.89;92.60;98768.88;4831448;29;103652;-76
2021/07/03 04:11:11;;;;;;;8.60;7.80;;;;;;;15.05;91.55;98771.84;4819122;29;103087;-76
2021/07/03 04:13:39;;;;;;;10.30;9.10;;;;;;;15.05;91.66;98769.19;4837818;29;104597;-76
2021/07/03 04:16:07;;;;;;;10.43;9.43;;;;;;;14.99;91.05;98778.56;4830742;29;105911;-76
2021/07/03 04:18:36;;;;;;;11.47;9.47;;;;;;;15.05;91.31;98779.84;4827440;29;103788;-76
2021/07/03 04:21:04;;;;;;;9.33;8.40;;;;;;;15.13;90.71;98785.31;4838949;29;102994;-76
2021/07/03 04:23:32;;;;;;;8.50;7.67;;;;;;;15.22;90.30;98792.47;4827419;29;103866;-76
2021/07/03 04:26:00;;;;;;;8.43;7.67;;;;;;;15.21;90.74;98793.47;4825208;29;104613;-76
2021/07/03 04:28:30;;;;;;;7.47;6.77;;;;;;;15.33;89.75;98795.00;4811346;29;103253;-76
2021/07/03 04:30:58;;;;;;;9.27;7.97;;;;;;;15.46;89.01;98790.31;4812770;29;102619;-76
2021/07/03 04:33:26;;;;;;;7.20;6.60;;;;;;;15.45;89.48;98788.59;4811555;29;103940;-76
2021/07/03 04:35:55;;;;;;;10.37;9.37;;;;;;;15.50;88.85;98786.38;4822849;29;103900;-76
2021/07/03 04:38:23;;;;;;;8.53;7.63;;;;;;;15.61;88.68;98783.56;4812064;29;104154;-76
2021/07/03 04:40:51;;;;;;;7.50;6.80;;;;;;;15.69;88.52;98795.34;4812483;29;102834;-79
2021/07/03 04:43:19;;;;;;;7.50;6.80;;;;;;;15.68;88.22;98785.69;4813769;29;103962;-73
2021/07/03 04:45:47;;;;;;;9.77;8.83;;;;;;;15.78;88.27;98783.84;4810257;29;103776;-73
2021/07/03 04:48:15;;;;;;;8.03;7.33;;;;;;;15.83;87.50;98790.41;4822619;29;102902;-74
2021/07/03 04:50:48;;;;;;;10.53;9.43;;;;;;;15.92;87.60;98786.06;4828873;29;102791;-72
2021/07/03 04:53:17;;;;;;;11.83;10.10;;;;;;;15.94;87.61;98779.63;4826426;29;103963;-76
2021/07/03 04:55:47;;;;;;;8.90;8.00;;;;;;;16.04;87.24;98779.59;4822331;29;103951;-77
2021/07/03 04:58:34;;;;;;;10.13;9.20;;;;;;;15.88;88.58;98779.34;4806644;29;102853;-76
2021/07/03 05:01:02;;;;;;;9.10;8.30;;;;;;;15.96;88.05;98768.81;4823529;29;103175;-77
2021/07/03 05:03:30;;;;;;;13.13;10.63;;;;;;;15.89;88.15;98770.38;4811345;29;104937;-76
2021/07/03 05:05:58;;;;;;;10.97;9.50;;;;;;;16.08;88.17;98775.69;4811095;29;104747;-75
2021/07/03 05:08:27;;;;;;;11.47;10.37;;;;;;;15.92;88.20;98780.75;4829383;29;102601;-76
2021/07/03 05:10:56;;;;;;;11.30;10.20;;;;;;;15.87;88.87;98778.50;4816792;29;103147;-76
2021/07/03 05:13:24;;;;;;;10.23;9.13;;;;;;;16.04;88.24;98768.94;4820022;29;103458;-75
2021/07/03 05:15:52;;;;;;;10.57;9.30;;;;;;;16.12;87.17;98777.06;4816552;29;104355;-76
2021/07/03 05:18:20;;;;;;;10.40;9.43;;;;;;;16.22;86.49;98783.22;4821558;29;102915;-78
2021/07/03 05:20:48;;;;;;;11.00;9.20;;;;;;;16.17;86.60;98775.66;4826879;29;102651;-78
2021/07/03 05:23:16;;;;;;;8.13;7.33;;;;;;;16.47;85.71;98768.41;4813692;29;103832;-77
2021/07/03 05:25:59;;;;;;;8.07;7.37;;;;;;;16.55;84.91;98764.06;4826893;29;104195;-78
2021/07/03 05:28:27;;;;;;;11.43;9.83;;;;;;;16.58;84.84;98763.78;4855319;28;102653;-80
2021/07/03 05:30:56;;;;;;;10.53;9.50;;;;;;;16.33;85.39;98764.41;4840964;29;102832;-79
2021/07/03 05:33:24;;;;;;;11.03;9.67;;;;;;;16.56;84.57;98760.38;4833149;29;110383;-79
2021/07/03 05:35:52;;;;;;;9.80;8.80;;;;;;;16.53;84.57;98763.34;4833554;29;106705;-79
2021/07/03 05:38:20;;;;;;;10.07;7.53;;;;;;;16.79;84.09;98756.34;4832473;29;102715;-79
2021/07/03 05:40:48;;;;;;;8.13;7.40;;;;;;;16.96;83.26;98768.06;4833003;29;102855;-79
2021/07/03 05:43:18;;;;;;;7.43;6.83;;;;;;;17.19;82.77;98769.34;4832887;29;104036;-79
2021/07/03 05:45:46;;;;;;;9.37;7.80;;;;;;;17.25;82.07;98774.06;4833374;29;103816;-79
2021/07/03 05:48:15;;;;;;;9.20;8.30;;;;;;;17.29;81.18;98769.28;4835467;29;103121;-79
2021/07/03 05:50:43;;;;;;;12.40;9.57;;;;;;;17.21;81.71;98769.16;4825942;29;105217;-79
2021/07/03 05:53:11;;;;;;;8.52;7.70;;;;;;;17.46;81.51;98776.44;4849406;29;104944;-79
2021/07/03 05:55:39;;;;;;;8.70;7.90;;;;;;;17.47;81.08;98771.94;4842073;29;104169;-79
2021/07/03 05:58:07;;;;;;;8.02;7.22;;;;;;;17.62;80.93;98770.44;4835832;29;103055;-79
2021/07/03 06:00:36;;;;;;;6.65;6.05;;;;;;;17.77;80.65;98755.53;4835098;29;102789;-79
2021/07/03 06:03:04;;;;;;;7.90;7.10;;;;;;;17.80;79.93;98761.41;4835963;29;103337;-79
2021/07/03 06:05:32;;;;;;;6.43;5.82;;;;;;;17.82;79.53;98763.97;4839057;29;102587;-79
2021/07/03 06:08:01;;;;;;;7.25;6.55;;;;;;;17.86;79.20;98758.13;4850094;29;102639;-80
2021/07/03 06:10:28;;;;;;;7.72;6.93;;;;;;;18.05;79.10;98761.63;4853308;29;102941;-80
2021/07/03 06:12:56;;;;;;;7.50;6.90;;;;;;;18.14;77.82;98758.00;4853193;29;109156;-80
2021/07/03 06:15:24;;;;;;;9.30;7.80;;;;;;;18.29;77.51;98751.09;4855960;29;103036;-80
2021/07/03 06:17:54;;;;;;;7.13;6.43;;;;;;;18.34;77.42;98743.41;4852124;29;103053;-80
2021/07/03 06:20:24;;;;;;;8.50;7.60;;;;;;;18.40;77.40;98748.13;4855634;29;102810;-80
2021/07/03 06:22:52;;;;;;;8.25;7.45;;;;;;;18.43;77.40;98747.81;4831382;29;103170;-79
2021/07/03 06:25:20;;;;;;;6.93;6.13;;;;;;;18.50;76.80;98746.19;4838636;29;102676;-79
2021/07/03 06:27:48;;;;;;;7.38;6.63;;;;;;;18.75;77.21;98745.31;4837915;29;102572;-79
2021/07/03 06:30:17;;;;;;;8.77;7.88;;;;;;;18.77;75.64;98742.50;4851525;29;102417;-80
2021/07/03 06:32:46;;;;;;;8.20;7.40;;;;;;;19.02;75.24;98738.91;4846178;29;102436;-80
2021/07/03 06:35:15;;;;;;;7.55;6.85;;;;;;;19.14;74.57;98729.56;4849142;29;110268;-80
2021/07/03 06:37:43;;;;;;;8.60;6.00;;;;;;;19.08;74.39;98731.06;4846311;29;102557;-80
2021/07/03 06:40:13;;;;;;;9.02;8.07;;;;;;;19.10;73.92;98734.41;4836932;29;103137;-80
2021/07/03 06:42:40;;;;;;;8.38;7.68;;;;;;;19.34;74.01;98733.59;4833120;29;103483;-80
2021/07/03 06:45:10;;;;;;;9.45;8.52;;;;;;;19.16;73.57;98742.78;4834711;29;103061;-79
2021/07/03 06:47:38;;;;;;;7.40;6.57;;;;;;;19.36;73.92;98728.94;4840504;29;102697;-80
2021/07/03 06:50:07;;;;;;;9.35;7.93;;;;;;;19.43;73.47;98734.47;4842232;29;102881;-80
2021/07/03 06:52:37;;;;;;;8.43;7.40;;;;;;;19.59;71.66;98737.19;4840214;29;102536;-80
2021/07/03 06:55:07;;;;;;;8.23;6.97;;;;;;;19.66;71.88;98740.88;4831173;29;103032;-78
2021/07/03 06:57:35;;;;;;;7.13;5.80;;;;;;;20.00;71.46;98741.53;4809628;29;103399;-76
2021/07/03 07:00:04;;;;;;;7.60;6.90;;;;;;;19.87;70.17;98735.88;4828632;29;103717;-79
2021/07/03 07:02:34;;;;;;;6.30;5.80;;;;;;;20.01;70.08;98743.22;4825059;29;103874;-80
2021/07/03 07:05:02;;;;;;;8.05;7.25;;;;;;;20.27;69.00;98739.53;4828290;29;103780;-81
2021/07/03 07:07:30;;;;;;;8.18;6.70;;;;;;;20.48;69.77;98731.75;4827717;29;102912;-78
2021/07/03 07:09:59;;;;;;;6.38;5.63;;;;;;;20.98;67.90;98737.59;4827283;29;104157;-82
2021/07/03 07:12:27;;;;;;;8.48;7.25;;;;;;;21.03;66.91;98737.88;4826886;29;103921;-75
2021/07/03 07:14:55;;;;;;;7.55;6.85;;;;;;;20.91;66.49;98735.78;4829680;29;103864;-76
2021/07/03 07:17:23;;;;;;;6.60;6.00;;;;;;;20.98;67.08;98734.06;4832252;29;103825;-77
2021/07/03 07:19:51;;;;;;;8.55;7.07;;;;;;;20.91;66.57;98723.19;4830443;29;103212;-76
2021/07/03 07:22:19;;;;;;;7.63;6.93;;;;;;;21.12;66.81;98726.13;4828209;29;104259;-77
2021/07/03 07:24:47;;;;;;;7.20;6.45;;;;;;;21.23;66.17;98733.78;4830984;29;103683;-76
2021/07/03 07:27:18;;;;;;;6.72;6.13;;;;;;;21.55;65.70;98722.00;4827453;29;103084;-76
2021/07/03 07:29:46;;;;;;;5.57;5.13;;;;;;;21.54;65.47;98719.47;4829037;29;103720;-76
2021/07/03 07:32:15;;;;;;;6.95;5.97;;;;;;;21.59;65.08;98722.44;4833846;29;103877;-76
2021/07/03 07:34:44;;;;;;;6.20;5.70;;;;;;;21.86;65.34;98719.22;4848617;29;103831;-83
2021/07/03 07:37:12;;;;;;;6.63;6.03;;;;;;;22.24;63.35;98711.97;4836691;29;103480;-76
2021/07/03 07:39:40;;;;;;;7.13;5.75;;;;;;;22.73;63.27;98710.44;4827896;29;103046;-77
2021/07/03 07:42:08;;;;;;;7.30;6.57;;;;;;;22.66;62.04;98717.56;4827374;29;103937;-77
2021/07/03 07:44:37;;;;;;;7.25;6.65;;;;;;;22.83;61.78;98712.81;4828669;29;103821;-77
2021/07/03 07:47:05;;;;;;;7.45;6.65;;;;;;;22.67;61.10;98703.09;4824471;29;103041;-77
2021/07/03 07:49:34;;;;;;;7.60;5.40;;;;;;;23.06;61.35;98700.91;4829783;29;103088;-76
2021/07/03 07:52:02;;;;;;;6.63;5.60;;;;;;;23.39;61.22;98703.97;4827900;29;103888;-75
2021/07/03 07:54:30;;;;;;;5.50;5.00;;;;;;;23.67;60.19;98702.16;4827480;29;103767;-74
2021/07/03 07:56:59;;;;;;;5.30;4.85;;;;;;;23.54;60.71;98695.81;4826637;29;103035;-74
2021/07/03 07:59:27;;;;;;;5.57;5.18;;;;;;;24.19;60.52;98695.56;4826938;29;103365;-75
2021/07/03 08:01:57;;;;;;;7.35;6.63;;;;;;;24.36;58.96;98696.94;4826881;29;104988;-76
2021/07/03 08:04:25;;;;;;;6.93;6.22;;;;;;;24.32;58.30;98695.66;4825499;29;103877;-74
2021/07/03 08:06:53;;;;;;;5.57;5.18;;;;;;;24.75;58.36;98702.53;4827575;29;107083;-75
2021/07/03 08:09:21;;;;;;;5.93;5.43;;;;;;;24.82;57.60;98690.94;4829364;29;104128;-75
2021/07/03 08:11:49;;;;;;;7.18;6.47;;;;;;;24.35;55.76;98686.31;4831133;29;104333;-76
2021/07/03 08:14:18;;;;;;;7.20;6.32;;;;;;;25.07;55.51;98689.38;4830330;29;103731;-76
2021/07/03 08:16:46;;;;;;;7.50;6.63;;;;;;;24.65;55.80;98680.47;4831876;29;104113;-70
2021/07/03 08:19:15;;;;;;;6.40;5.90;;;;;;;25.41;56.02;98675.75;4836246;29;102882;-76
2021/07/03 08:21:44;;;;;;;5.80;5.30;;;;;;;26.16;53.02;98682.69;4837369;29;109874;-76
2021/07/03 08:24:12;;;;;;;7.03;6.43;;;;;;;25.19;53.50;98679.66;4826903;29;104881;-76
2021/07/03 08:26:40;;;;;;;6.70;6.10;;;;;;;25.23;52.94;98680.91;4817003;29;103662;-74
2021/07/03 08:29:08;;;;;;;6.38;5.78;;;;;;;26.27;51.89;98665.81;4845725;29;103198;-73
2021/07/03 08:31:36;;;;;;;6.47;5.88;;;;;;;26.98;49.42;98669.34;4835410;29;103886;-76
2021/07/03 08:34:04;;;;;;;6.00;5.47;;;;;;;26.88;49.11;98669.81;4847629;29;103750;-76
2021/07/03 08:36:34;;;;;;;6.25;5.70;;;;;;;27.02;47.53;98666.00;4840471;29;102943;-75
2021/07/03 08:39:02;;;;;;;6.97;6.38;;;;;;;27.15;48.77;98675.09;4841271;29;103207;-75
2021/07/03 08:41:33;;;;;;;5.78;5.28;;;;;;;27.83;48.60;98662.53;4828457;29;104420;-72
2021/07/03 08:44:01;;;;;;;7.97;5.80;;;;;;;27.83;47.13;98668.81;4828100;29;104957;-72
2021/07/03 08:46:29;;;;;;;5.95;5.28;;;;;;;27.83;47.35;98667.97;4829144;29;103147;-78
2021/07/03 08:48:58;;;;;;;5.50;5.07;;;;;;;27.65;45.89;98667.94;4845718;29;102870;-73
2021/07/03 08:51:26;;;;;;;5.53;5.03;;;;;;;27.76;45.85;98673.47;4806889;29;104318;-72
2021/07/03 08:53:56;;;;;;;6.47;5.88;;;;;;;27.62;45.61;98677.34;4831156;29;103686;-71
2021/07/03 08:56:24;;;;;;;5.80;5.30;;;;;;;28.08;46.76;98666.09;4841845;29;102897;-72
2021/07/03 08:58:51;;;;;;;5.88;5.38;;;;;;;28.65;44.54;98663.03;4832888;29;102662;-72
2021/07/03 09:01:19;;;;;;;6.10;5.50;;;;;;;28.52;44.77;98663.13;4831096;29;103840;-72
2021/07/03 09:03:51;;;;;;;5.70;5.18;;;;;;;29.09;44.13;98680.88;4838884;29;105489;-73
2021/07/03 09:06:30;;;;;;;4.95;4.50;;;;;;;29.34;41.92;98672.59;4832093;29;103206;-73
2021/07/03 09:09:00;;;;;;;6.40;5.73;;;;;;;28.52;41.88;98667.75;4844038;29;103800;-72
2021/07/03 09:11:28;;;;;;;4.55;4.20;;;;;;;29.53;42.62;98660.59;4836345;29;104222;-76
2021/07/03 09:14:02;;;;;;;16.33;5.38;;;;;;;29.30;41.68;98650.50;4827511;29;104174;-72
2021/07/03 09:16:31;;;;;;;6.22;5.20;;;;;;;28.73;42.39;98648.31;4826305;29;103204;-72
2021/07/03 09:19:00;;;;;;;5.10;4.70;;;;;;;29.02;42.66;98642.06;4832779;29;102863;-72
2021/07/03 09:21:29;;;;;;;5.22;4.82;;;;;;;29.15;42.34;98646.47;4828214;29;104147;-73
2021/07/03 09:24:01;;;;;;;4.80;4.40;;;;;;;29.74;42.48;98646.44;4830364;29;103278;-72
2021/07/03 09:26:29;;;;;;;6.20;4.93;;;;;;;30.14;40.36;98640.34;4825701;29;102906;-72
2021/07/03 09:28:57;;;;;;;5.18;4.70;;;;;;;29.47;41.15;98634.34;4827992;29;102967;-75
2021/07/03 09:31:25;;;;;;;8.90;5.05;;;;;;;29.08;42.00;98652.00;4820393;29;104097;-72
2021/07/03 09:33:55;;;;;;;6.28;4.93;;;;;;;29.76;39.72;98643.47;4843892;29;103821;-73
2021/07/03 09:36:25;;;;;;;5.07;4.57;;;;;;;29.85;39.45;98637.50;4838742;29;102887;-76
2021/07/03 09:38:54;;;;;;;5.85;4.90;;;;;;;30.43;36.98;98629.31;4815630;29;103408;-72
2021/07/03 09:41:25;;;;;;;5.65;5.25;;;;;;;29.98;39.33;98635.63;4824917;29;103406;-75
2021/07/03 09:43:58;;;;;;;5.32;4.85;;;;;;;30.63;36.94;98628.09;4825240;29;110925;-88
2021/07/03 09:46:28;;;;;;;4.63;4.22;;;;;;;30.69;39.43;98632.56;4814452;29;103094;-84
2021/07/03 09:48:59;;;;;;;5.35;4.95;;;;;;;30.52;40.01;98620.75;4826234;29;103217;-83
2021/07/03 09:51:30;;;;;;;5.50;5.00;;;;;;;30.05;38.60;98628.97;4823607;29;103906;-85
2021/07/03 09:53:59;;;;;;;5.43;4.93;;;;;;;29.27;41.07;98629.19;4828955;29;103794;-81
2021/07/03 09:56:29;;;;;;;4.85;4.25;;;;;;;30.49;40.32;98615.78;4824604;29;102965;-80
2021/07/03 09:58:58;;;;;;;5.50;5.00;;;;;;;30.16;38.83;98611.78;4825983;29;102965;-83
2021/07/03 10:01:26;;;;;;;5.93;5.32;;;;;;;29.83;39.44;98606.13;4825826;29;104134;-81
2021/07/03 10:03:55;;;;;;;4.97;4.57;;;;;;;30.60;38.70;98601.34;4826539;29;104048;-81
2021/07/03 10:06:29;;;;;;;6.65;4.82;;;;;;;29.24;39.38;98607.06;4814659;29;102892;-81
2021/07/03 10:09:01;;;;;;;6.03;4.57;;;;;;;29.73;38.94;98600.38;4827993;29;103304;-85
2021/07/03 10:11:33;;;;;;;4.75;4.35;;;;;;;30.51;38.45;98592.72;4827094;29;103925;-84
2021/07/03 10:14:04;;;;;;;5.00;4.60;;;;;;;29.45;39.76;98597.50;4828868;29;105050;-81
2021/07/03 10:16:33;;;;;;;4.57;4.22;;;;;;;29.66;39.54;98595.06;4827550;29;103120;-82
2021/07/03 10:19:10;;;;;;;5.35;4.80;;;;;;;28.38;40.13;98603.75;4828142;29;103244;-82
2021/07/03 10:21:38;;;;;;;5.22;4.82;;;;;;;29.29;37.67;98604.47;4827121;29;104474;-79
2021/07/03 10:24:17;;;;;;;4.82;4.30;;;;;;;29.18;38.99;98605.22;4820350;29;110750;-87
2021/07/03 10:26:47;;;;;;;4.65;4.30;;;;;;;30.15;39.87;98603.88;4822342;29;102975;-78
2021/07/03 10:29:17;;;;;;;4.63;4.20;;;;;;;30.39;39.29;98590.00;4826166;29;103134;-78
2021/07/03 10:31:46;;;;;;;6.22;5.68;;;;;;;27.32;40.79;98594.88;4824402;29;103835;-78
2021/07/03 10:34:14;;;;;;;4.80;4.50;;;;;;;29.22;40.36;98604.56;4825980;29;103722;-78
2021/07/03 10:36:43;;;;;;;5.72;4.30;;;;;;;30.10;38.68;98590.94;4825374;29;103093;-78
2021/07/03 10:39:12;;;;;;;5.28;4.88;;;;;;;29.85;37.68;98582.19;4835407;29;102767;-78
2021/07/03 10:41:52;;;;;;;4.30;4.00;;;;;;;29.30;38.58;98573.50;4830844;29;104505;-79
2021/07/03 10:44:20;;;;;;;4.75;4.35;;;;;;;30.52;38.21;98571.69;4827412;29;107166;-79
2021/07/03 10:46:48;;;;;;;4.68;4.28;;;;;;;30.94;37.19;98571.22;4847245;29;103104;-86
2021/07/03 10:49:20;;;;;;;6.50;4.68;;;;;;;30.84;37.45;98565.56;4831881;29;103065;-74
2021/07/03 10:51:51;;;;;;;4.75;4.28;;;;;;;30.82;35.17;98572.34;4825976;29;104886;-75
2021/07/03 10:54:27;;;;;;;4.80;4.40;;;;;;;30.83;37.46;98569.34;4825511;29;104868;-77
2021/07/03 10:57:02;;;;;;;4.80;4.40;;;;;;;30.39;38.91;98568.19;4849256;29;102973;-74
2021/07/03 10:59:33;;;;;;;5.20;4.80;;;;;;;28.08;40.20;98561.03;4819290;29;103153;-74
2021/07/03 11:02:09;;;;;;;4.60;4.20;;;;;;;30.11;38.58;98554.47;4843722;29;103921;-74
2021/07/03 11:04:46;;;;;;;5.00;4.35;;;;;;;28.64;36.93;98563.53;4836564;29;103724;-74
2021/07/03 11:07:15;;;;;;;11.18;4.68;;;;;;;28.64;38.29;98558.09;4823999;29;102725;-72
2021/07/03 11:09:43;;;;;;;4.47;3.72;;;;;;;28.45;39.99;98558.31;4845293;29;104432;-72
2021/07/03 11:12:16;;;;;;;7.65;7.05;;;;;;;30.06;39.02;98554.38;4840371;29;104665;-72
2021/07/03 11:14:49;;;;;;;5.07;4.65;;;;;;;30.32;37.58;98556.56;4829783;29;104102;-72
2021/07/03 11:17:18;;;;;;;4.00;3.70;;;;;;;30.18;37.85;98554.34;4846739;29;103097;-79
2021/07/03 11:19:51;;;;;;;4.63;4.32;;;;;;;30.44;37.15;98549.22;4828683;29;103105;-81
2021/07/03 11:22:21;;;;;;;5.15;4.30;;;;;;;29.36;38.24;98556.22;4844931;29;103314;-79
2021/07/03 11:24:51;;;;;;;4.60;3.92;;;;;;;29.39;37.61;98550.28;4838248;29;105331;-77
2021/07/03 11:27:31;;;;;;;5.25;4.28;;;;;;;28.66;37.51;98549.72;4834572;29;103104;-81
2021/07/03 11:30:00;;;;;;;5.25;4.45;;;;;;;29.10;39.31;98540.28;4848174;29;103394;-78
2021/07/03 11:32:29;;;;;;;4.97;4.00;;;;;;;29.38;38.28;98526.88;4841653;29;104456;-84
2021/07/03 11:34:58;;;;;;;3.85;3.55;;;;;;;30.44;37.31;98532.88;4847227;29;103449;-81